sensor_id;sensor_type;location;lat;lon;timestamp;temperature;humidity
18085;DHT22;9169;44.492;11.372;2023-07-13T00:01:09;32.80;43.50
18085;DHT22;9169;44.492;11.372;2023-07-13T00:03:38;32.80;44.20
18085;DHT22;9169;44.492;11.372;2023-07-13T00:06:09;32.70;44.40
18085;DHT22;9169;44.492;11.372;2023-07-13T00:08:38;32.70;44.80
18085;DHT22;9169;44.492;11.372;2023-07-13T00:11:07;32.70;45.00
18085;DHT22;9169;44.492;11.372;2023-07-13T00:13:37;32.60;45.40
18085;DHT22;9169;44.492;11.372;2023-07-13T00:16:08;32.60;45.70
18085;DHT22;9169;44.492;11.372;2023-07-13T00:18:37;32.60;45.80
18085;DHT22;9169;44.492;11.372;2023-07-13T00:21:06;32.50;46.10
18085;DHT22;9169;44.492;11.372;2023-07-13T00:23:38;32.50;46.50
18085;DHT22;9169;44.492;11.372;2023-07-13T00:26:09;32.50;46.80
18085;DHT22;9169;44.492;11.372;2023-07-13T00:28:38;32.40;46.80
18085;DHT22;9169;44.492;11.372;2023-07-13T00:31:09;32.40;47.00
18085;DHT22;9169;44.492;11.372;2023-07-13T00:33:38;32.30;46.80
18085;DHT22;9169;44.492;11.372;2023-07-13T00:36:08;32.30;47.00
18085;DHT22;9169;44.492;11.372;2023-07-13T00:38:38;32.20;47.10
18085;DHT22;9169;44.492;11.372;2023-07-13T00:41:08;32.20;47.30
18085;DHT22;9169;44.492;11.372;2023-07-13T00:43:37;32.20;47.20
18085;DHT22;9169;44.492;11.372;2023-07-13T00:46:19;32.10;47.30
18085;DHT22;9169;44.492;11.372;2023-07-13T00:48:49;32.20;47.80
18085;DHT22;9169;44.492;11.372;2023-07-13T00:51:23;32.10;47.60
18085;DHT22;9169;44.492;11.372;2023-07-13T00:53:54;32.00;47.70
18085;DHT22;9169;44.492;11.372;2023-07-13T00:56:25;32.10;47.80
18085;DHT22;9169;44.492;11.372;2023-07-13T00:58:54;32.00;47.60
18085;DHT22;9169;44.492;11.372;2023-07-13T01:01:23;32.00;47.60
18085;DHT22;9169;44.492;11.372;2023-07-13T01:03:52;32.00;47.60
18085;DHT22;9169;44.492;11.372;2023-07-13T01:06:21;32.00;47.90
18085;DHT22;9169;44.492;11.372;2023-07-13T01:08:50;32.00;48.00
18085;DHT22;9169;44.492;11.372;2023-07-13T01:11:21;32.00;48.20
18085;DHT22;9169;44.492;11.372;2023-07-13T01:13:50;31.90;48.40
18085;DHT22;9169;44.492;11.372;2023-07-13T01:16:28;31.90;48.70
18085;DHT22;9169;44.492;11.372;2023-07-13T01:18:58;31.90;49.00
18085;DHT22;9169;44.492;11.372;2023-07-13T01:21:32;31.90;48.90
18085;DHT22;9169;44.492;11.372;2023-07-13T01:24:01;31.90;49.20
18085;DHT22;9169;44.492;11.372;2023-07-13T01:26:30;31.90;49.00
18085;DHT22;9169;44.492;11.372;2023-07-13T01:28:59;31.90;49.00
18085;DHT22;9169;44.492;11.372;2023-07-13T01:31:27;31.90;49.10
18085;DHT22;9169;44.492;11.372;2023-07-13T01:33:58;31.90;49.30
18085;DHT22;9169;44.492;11.372;2023-07-13T01:36:26;31.90;49.20
18085;DHT22;9169;44.492;11.372;2023-07-13T01:38:56;31.90;49.30
18085;DHT22;9169;44.492;11.372;2023-07-13T01:41:24;31.90;49.60
18085;DHT22;9169;44.492;11.372;2023-07-13T01:43:53;31.90;49.30
18085;DHT22;9169;44.492;11.372;2023-07-13T01:46:22;31.90;49.40
18085;DHT22;9169;44.492;11.372;2023-07-13T01:48:50;31.90;48.90
18085;DHT22;9169;44.492;11.372;2023-07-13T01:51:20;31.80;48.70
18085;DHT22;9169;44.492;11.372;2023-07-13T01:53:48;31.80;48.20
18085;DHT22;9169;44.492;11.372;2023-07-13T01:56:19;31.80;47.80
18085;DHT22;9169;44.492;11.372;2023-07-13T01:58:48;31.80;47.80
18085;DHT22;9169;44.492;11.372;2023-07-13T02:01:16;31.80;47.50
18085;DHT22;9169;44.492;11.372;2023-07-13T02:03:46;31.70;47.30
18085;DHT22;9169;44.492;11.372;2023-07-13T02:06:15;31.70;47.30
18085;DHT22;9169;44.492;11.372;2023-07-13T02:08:43;31.70;47.50
18085;DHT22;9169;44.492;11.372;2023-07-13T02:11:12;31.60;47.40
18085;DHT22;9169;44.492;11.372;2023-07-13T02:13:42;31.60;47.40
18085;DHT22;9169;44.492;11.372;2023-07-13T02:16:11;31.60;47.50
18085;DHT22;9169;44.492;11.372;2023-07-13T02:18:39;31.50;47.10
18085;DHT22;9169;44.492;11.372;2023-07-13T02:21:08;31.50;46.90
18085;DHT22;9169;44.492;11.372;2023-07-13T02:23:36;31.50;46.90
18085;DHT22;9169;44.492;11.372;2023-07-13T02:26:05;31.50;46.70
18085;DHT22;9169;44.492;11.372;2023-07-13T02:28:33;31.50;46.40
18085;DHT22;9169;44.492;11.372;2023-07-13T02:31:07;31.50;46.20
18085;DHT22;9169;44.492;11.372;2023-07-13T02:33:36;31.50;46.40
18085;DHT22;9169;44.492;11.372;2023-07-13T02:36:05;31.40;46.20
18085;DHT22;9169;44.492;11.372;2023-07-13T02:38:35;31.50;46.20
18085;DHT22;9169;44.492;11.372;2023-07-13T02:41:04;31.40;46.00
18085;DHT22;9169;44.492;11.372;2023-07-13T02:43:33;31.40;45.70
18085;DHT22;9169;44.492;11.372;2023-07-13T02:46:02;31.50;45.60
18085;DHT22;9169;44.492;11.372;2023-07-13T02:48:40;31.50;45.70
18085;DHT22;9169;44.492;11.372;2023-07-13T02:51:09;31.50;45.70
18085;DHT22;9169;44.492;11.372;2023-07-13T02:53:37;31.50;45.60
18085;DHT22;9169;44.492;11.372;2023-07-13T02:56:06;31.50;45.50
18085;DHT22;9169;44.492;11.372;2023-07-13T02:58:35;31.50;45.40
18085;DHT22;9169;44.492;11.372;2023-07-13T03:01:07;31.50;45.30
18085;DHT22;9169;44.492;11.372;2023-07-13T03:03:37;31.50;45.20
18085;DHT22;9169;44.492;11.372;2023-07-13T03:06:06;31.50;45.00
18085;DHT22;9169;44.492;11.372;2023-07-13T03:08:44;31.50;45.00
18085;DHT22;9169;44.492;11.372;2023-07-13T03:11:14;31.50;44.90
18085;DHT22;9169;44.492;11.372;2023-07-13T03:13:45;31.50;44.70
18085;DHT22;9169;44.492;11.372;2023-07-13T03:16:15;31.50;44.70
18085;DHT22;9169;44.492;11.372;2023-07-13T03:18:49;31.50;44.60
18085;DHT22;9169;44.492;11.372;2023-07-13T03:21:17;31.50;44.60
18085;DHT22;9169;44.492;11.372;2023-07-13T03:23:46;31.50;44.60
18085;DHT22;9169;44.492;11.372;2023-07-13T03:26:17;31.50;44.80
18085;DHT22;9169;44.492;11.372;2023-07-13T03:28:47;31.50;45.10
18085;DHT22;9169;44.492;11.372;2023-07-13T03:31:21;31.40;45.30
18085;DHT22;9169;44.492;11.372;2023-07-13T03:33:52;31.40;45.30
18085;DHT22;9169;44.492;11.372;2023-07-13T03:36:22;31.40;45.50
18085;DHT22;9169;44.492;11.372;2023-07-13T03:38:56;31.40;45.50
18085;DHT22;9169;44.492;11.372;2023-07-13T03:41:29;31.40;45.70
18085;DHT22;9169;44.492;11.372;2023-07-13T03:43:59;31.30;45.80
18085;DHT22;9169;44.492;11.372;2023-07-13T03:46:28;31.30;45.80
18085;DHT22;9169;44.492;11.372;2023-07-13T03:48:58;31.30;46.00
18085;DHT22;9169;44.492;11.372;2023-07-13T03:51:27;31.30;46.10
18085;DHT22;9169;44.492;11.372;2023-07-13T03:53:55;31.30;46.20
18085;DHT22;9169;44.492;11.372;2023-07-13T03:56:24;31.30;46.20
18085;DHT22;9169;44.492;11.372;2023-07-13T03:58:52;31.30;46.10
18085;DHT22;9169;44.492;11.372;2023-07-13T04:01:23;31.30;46.30
18085;DHT22;9169;44.492;11.372;2023-07-13T04:03:52;31.30;46.40
18085;DHT22;9169;44.492;11.372;2023-07-13T04:06:28;31.30;46.30
18085;DHT22;9169;44.492;11.372;2023-07-13T04:08:59;31.20;46.50
18085;DHT22;9169;44.492;11.372;2023-07-13T04:11:29;31.20;46.40
18085;DHT22;9169;44.492;11.372;2023-07-13T04:13:59;31.20;46.60
18085;DHT22;9169;44.492;11.372;2023-07-13T04:16:28;31.20;46.60
18085;DHT22;9169;44.492;11.372;2023-07-13T04:18:57;31.20;46.50
18085;DHT22;9169;44.492;11.372;2023-07-13T04:21:30;31.20;46.40
18085;DHT22;9169;44.492;11.372;2023-07-13T04:23:59;31.30;46.50
18085;DHT22;9169;44.492;11.372;2023-07-13T04:26:27;31.30;46.40
18085;DHT22;9169;44.492;11.372;2023-07-13T04:28:56;31.30;46.30
18085;DHT22;9169;44.492;11.372;2023-07-13T04:31:25;31.30;46.20
18085;DHT22;9169;44.492;11.372;2023-07-13T04:33:53;31.30;46.10
18085;DHT22;9169;44.492;11.372;2023-07-13T04:36:22;31.30;46.10
18085;DHT22;9169;44.492;11.372;2023-07-13T04:38:52;31.30;46.30
18085;DHT22;9169;44.492;11.372;2023-07-13T04:41:22;31.30;46.30
18085;DHT22;9169;44.492;11.372;2023-07-13T04:43:50;31.30;46.50
18085;DHT22;9169;44.492;11.372;2023-07-13T04:46:20;31.30;46.40
18085;DHT22;9169;44.492;11.372;2023-07-13T04:48:49;31.30;46.60
18085;DHT22;9169;44.492;11.372;2023-07-13T04:51:20;31.30;46.60
18085;DHT22;9169;44.492;11.372;2023-07-13T04:53:48;31.30;46.50
18085;DHT22;9169;44.492;11.372;2023-07-13T04:56:20;31.30;46.50
18085;DHT22;9169;44.492;11.372;2023-07-13T04:58:48;31.30;46.50
18085;DHT22;9169;44.492;11.372;2023-07-13T05:01:17;31.40;46.50
18085;DHT22;9169;44.492;11.372;2023-07-13T05:03:45;31.40;46.70
18085;DHT22;9169;44.492;11.372;2023-07-13T05:06:14;31.40;46.70
18085;DHT22;9169;44.492;11.372;2023-07-13T05:08:43;31.40;46.80
18085;DHT22;9169;44.492;11.372;2023-07-13T05:11:11;31.40;46.80
18085;DHT22;9169;44.492;11.372;2023-07-13T05:13:41;31.40;46.70
18085;DHT22;9169;44.492;11.372;2023-07-13T05:16:09;31.50;46.80
18085;DHT22;9169;44.492;11.372;2023-07-13T05:18:38;31.50;46.70
18085;DHT22;9169;44.492;11.372;2023-07-13T05:21:10;31.60;46.60
18085;DHT22;9169;44.492;11.372;2023-07-13T05:23:39;31.50;46.60
18085;DHT22;9169;44.492;11.372;2023-07-13T05:26:09;31.60;47.00
18085;DHT22;9169;44.492;11.372;2023-07-13T05:28:38;31.60;46.50
18085;DHT22;9169;44.492;11.372;2023-07-13T05:31:09;31.70;46.60
18085;DHT22;9169;44.492;11.372;2023-07-13T05:33:38;31.60;46.70
18085;DHT22;9169;44.492;11.372;2023-07-13T05:36:07;31.60;46.70
18085;DHT22;9169;44.492;11.372;2023-07-13T05:38:35;31.50;47.10
18085;DHT22;9169;44.492;11.372;2023-07-13T05:41:04;31.50;47.30
18085;DHT22;9169;44.492;11.372;2023-07-13T05:43:32;31.50;47.40
18085;DHT22;9169;44.492;11.372;2023-07-13T05:46:01;31.50;47.40
18085;DHT22;9169;44.492;11.372;2023-07-13T05:48:31;31.60;47.40
18085;DHT22;9169;44.492;11.372;2023-07-13T05:51:00;31.60;47.30
18085;DHT22;9169;44.492;11.372;2023-07-13T05:53:29;31.60;47.40
18085;DHT22;9169;44.492;11.372;2023-07-13T05:55:58;31.60;47.40
18085;DHT22;9169;44.492;11.372;2023-07-13T05:58:28;31.60;47.30
18085;DHT22;9169;44.492;11.372;2023-07-13T06:01:00;31.70;47.40
18085;DHT22;9169;44.492;11.372;2023-07-13T06:03:31;31.60;47.50
18085;DHT22;9169;44.492;11.372;2023-07-13T06:05:59;31.60;47.30
18085;DHT22;9169;44.492;11.372;2023-07-13T06:08:28;31.50;47.00
18085;DHT22;9169;44.492;11.372;2023-07-13T06:11:02;31.50;46.80
18085;DHT22;9169;44.492;11.372;2023-07-13T06:13:31;31.50;46.90
18085;DHT22;9169;44.492;11.372;2023-07-13T06:16:02;31.50;46.60
18085;DHT22;9169;44.492;11.372;2023-07-13T06:18:34;31.50;46.50
18085;DHT22;9169;44.492;11.372;2023-07-13T06:21:06;31.50;46.40
18085;DHT22;9169;44.492;11.372;2023-07-13T06:23:35;31.50;46.40
18085;DHT22;9169;44.492;11.372;2023-07-13T06:26:06;31.50;46.30
18085;DHT22;9169;44.492;11.372;2023-07-13T06:28:35;31.50;46.30
18085;DHT22;9169;44.492;11.372;2023-07-13T06:31:06;31.50;46.60
18085;DHT22;9169;44.492;11.372;2023-07-13T06:33:36;31.50;46.60
18085;DHT22;9169;44.492;11.372;2023-07-13T06:36:06;31.50;46.50
18085;DHT22;9169;44.492;11.372;2023-07-13T06:38:36;31.50;46.30
18085;DHT22;9169;44.492;11.372;2023-07-13T06:41:05;31.50;46.10
18085;DHT22;9169;44.492;11.372;2023-07-13T06:43:34;31.60;46.40
18085;DHT22;9169;44.492;11.372;2023-07-13T06:46:03;31.60;46.40
18085;DHT22;9169;44.492;11.372;2023-07-13T06:48:31;31.60;46.50
18085;DHT22;9169;44.492;11.372;2023-07-13T06:51:02;31.60;46.50
18085;DHT22;9169;44.492;11.372;2023-07-13T06:53:31;31.60;46.60
18085;DHT22;9169;44.492;11.372;2023-07-13T06:55:59;31.60;46.50
18085;DHT22;9169;44.492;11.372;2023-07-13T06:58:28;31.70;46.30
18085;DHT22;9169;44.492;11.372;2023-07-13T07:00:56;31.70;46.20
18085;DHT22;9169;44.492;11.372;2023-07-13T07:03:25;31.70;46.10
18085;DHT22;9169;44.492;11.372;2023-07-13T07:05:53;31.70;46.00
18085;DHT22;9169;44.492;11.372;2023-07-13T07:08:23;31.70;46.00
18085;DHT22;9169;44.492;11.372;2023-07-13T07:10:52;31.70;46.10
18085;DHT22;9169;44.492;11.372;2023-07-13T07:13:21;31.70;46.00
18085;DHT22;9169;44.492;11.372;2023-07-13T07:15:50;31.60;46.00
18085;DHT22;9169;44.492;11.372;2023-07-13T07:18:19;31.60;45.90
18085;DHT22;9169;44.492;11.372;2023-07-13T07:20:49;31.70;45.90
18085;DHT22;9169;44.492;11.372;2023-07-13T07:23:17;31.70;45.80
18085;DHT22;9169;44.492;11.372;2023-07-13T07:25:48;31.80;45.80
18085;DHT22;9169;44.492;11.372;2023-07-13T07:28:17;31.80;46.00
18085;DHT22;9169;44.492;11.372;2023-07-13T07:30:52;31.90;46.00
18085;DHT22;9169;44.492;11.372;2023-07-13T07:33:41;31.90;46.00
18085;DHT22;9169;44.492;11.372;2023-07-13T07:36:10;31.90;45.90
18085;DHT22;9169;44.492;11.372;2023-07-13T07:38:42;31.80;46.40
18085;DHT22;9169;44.492;11.372;2023-07-13T07:41:13;31.80;45.80
18085;DHT22;9169;44.492;11.372;2023-07-13T07:43:44;31.80;45.90
18085;DHT22;9169;44.492;11.372;2023-07-13T07:46:13;31.80;45.60
18085;DHT22;9169;44.492;11.372;2023-07-13T07:48:42;31.90;45.60
18085;DHT22;9169;44.492;11.372;2023-07-13T07:51:10;31.90;45.60
18085;DHT22;9169;44.492;11.372;2023-07-13T07:53:39;31.90;45.60
18085;DHT22;9169;44.492;11.372;2023-07-13T07:56:07;31.90;45.60
18085;DHT22;9169;44.492;11.372;2023-07-13T07:58:41;32.00;45.70
18085;DHT22;9169;44.492;11.372;2023-07-13T08:01:12;32.10;45.70
18085;DHT22;9169;44.492;11.372;2023-07-13T08:03:44;32.10;45.50
18085;DHT22;9169;44.492;11.372;2023-07-13T08:06:16;32.10;45.30
18085;DHT22;9169;44.492;11.372;2023-07-13T08:08:50;32.20;45.50
18085;DHT22;9169;44.492;11.372;2023-07-13T08:11:18;32.00;45.50
18085;DHT22;9169;44.492;11.372;2023-07-13T08:13:51;32.20;45.70
18085;DHT22;9169;44.492;11.372;2023-07-13T08:16:21;32.20;45.80
18085;DHT22;9169;44.492;11.372;2023-07-13T08:18:50;32.10;45.80
18085;DHT22;9169;44.492;11.372;2023-07-13T08:21:18;32.20;45.90
18085;DHT22;9169;44.492;11.372;2023-07-13T08:23:47;32.20;45.80
18085;DHT22;9169;44.492;11.372;2023-07-13T08:26:16;32.20;45.90
18085;DHT22;9169;44.492;11.372;2023-07-13T08:28:44;32.30;45.80
18085;DHT22;9169;44.492;11.372;2023-07-13T08:31:14;32.40;45.90
18085;DHT22;9169;44.492;11.372;2023-07-13T08:33:43;32.40;46.00
18085;DHT22;9169;44.492;11.372;2023-07-13T08:36:11;32.40;46.70
18085;DHT22;9169;44.492;11.372;2023-07-13T08:38:40;32.50;46.10
18085;DHT22;9169;44.492;11.372;2023-07-13T08:41:14;32.50;46.00
18085;DHT22;9169;44.492;11.372;2023-07-13T08:43:46;32.50;45.90
18085;DHT22;9169;44.492;11.372;2023-07-13T08:46:20;32.50;46.10
18085;DHT22;9169;44.492;11.372;2023-07-13T08:48:56;32.50;46.10
18085;DHT22;9169;44.492;11.372;2023-07-13T08:51:35;32.40;46.10
18085;DHT22;9169;44.492;11.372;2023-07-13T08:54:19;32.40;46.30
18085;DHT22;9169;44.492;11.372;2023-07-13T08:56:50;32.20;46.20
18085;DHT22;9169;44.492;11.372;2023-07-13T08:59:25;32.20;46.10
18085;DHT22;9169;44.492;11.372;2023-07-13T09:02:06;32.20;46.40
18085;DHT22;9169;44.492;11.372;2023-07-13T09:04:42;32.10;46.70
18085;DHT22;9169;44.492;11.372;2023-07-13T09:07:17;31.90;46.80
18085;DHT22;9169;44.492;11.372;2023-07-13T09:09:55;31.90;46.90
18085;DHT22;9169;44.492;11.372;2023-07-13T09:12:31;31.90;47.00
18085;DHT22;9169;44.492;11.372;2023-07-13T09:15:04;31.80;47.10
18085;DHT22;9169;44.492;11.372;2023-07-13T09:17:39;31.70;47.20
18085;DHT22;9169;44.492;11.372;2023-07-13T09:20:19;31.60;47.50
18085;DHT22;9169;44.492;11.372;2023-07-13T09:22:51;31.60;47.70
18085;DHT22;9169;44.492;11.372;2023-07-13T09:25:27;31.50;47.80
18085;DHT22;9169;44.492;11.372;2023-07-13T09:28:01;31.50;48.00
18085;DHT22;9169;44.492;11.372;2023-07-13T09:30:36;31.50;48.00
18085;DHT22;9169;44.492;11.372;2023-07-13T09:33:08;31.50;48.20
18085;DHT22;9169;44.492;11.372;2023-07-13T09:35:36;31.40;48.30
18085;DHT22;9169;44.492;11.372;2023-07-13T09:38:12;31.40;48.50
18085;DHT22;9169;44.492;11.372;2023-07-13T09:40:48;31.40;49.10
18085;DHT22;9169;44.492;11.372;2023-07-13T09:43:20;31.40;49.20
18085;DHT22;9169;44.492;11.372;2023-07-13T09:45:49;31.40;49.30
18085;DHT22;9169;44.492;11.372;2023-07-13T09:48:19;31.30;49.80
18085;DHT22;9169;44.492;11.372;2023-07-13T09:50:47;31.20;50.50
18085;DHT22;9169;44.492;11.372;2023-07-13T09:53:19;31.20;50.90
18085;DHT22;9169;44.492;11.372;2023-07-13T09:55:48;31.10;51.30
18085;DHT22;9169;44.492;11.372;2023-07-13T09:58:21;31.00;51.40
18085;DHT22;9169;44.492;11.372;2023-07-13T10:00:55;31.00;51.90
18085;DHT22;9169;44.492;11.372;2023-07-13T10:03:28;30.80;52.10
18085;DHT22;9169;44.492;11.372;2023-07-13T10:06:09;30.80;52.40
18085;DHT22;9169;44.492;11.372;2023-07-13T10:08:39;30.70;52.50
18085;DHT22;9169;44.492;11.372;2023-07-13T10:11:18;30.70;52.50
18085;DHT22;9169;44.492;11.372;2023-07-13T10:13:51;30.60;53.00
18085;DHT22;9169;44.492;11.372;2023-07-13T10:16:22;30.40;53.00
18085;DHT22;9169;44.492;11.372;2023-07-13T10:18:56;30.30;52.30
18085;DHT22;9169;44.492;11.372;2023-07-13T10:21:30;30.20;52.40
18085;DHT22;9169;44.492;11.372;2023-07-13T10:24:10;30.10;52.50
18085;DHT22;9169;44.492;11.372;2023-07-13T10:26:46;30.00;52.50
18085;DHT22;9169;44.492;11.372;2023-07-13T10:29:16;30.00;52.40
18085;DHT22;9169;44.492;11.372;2023-07-13T10:31:46;30.00;52.40
18085;DHT22;9169;44.492;11.372;2023-07-13T10:34:16;30.10;51.70
18085;DHT22;9169;44.492;11.372;2023-07-13T10:36:46;30.20;52.10
18085;DHT22;9169;44.492;11.372;2023-07-13T10:39:18;30.30;52.10
18085;DHT22;9169;44.492;11.372;2023-07-13T10:41:51;30.40;51.60
18085;DHT22;9169;44.492;11.372;2023-07-13T10:44:24;30.50;51.40
18085;DHT22;9169;44.492;11.372;2023-07-13T10:46:57;30.70;51.50
18085;DHT22;9169;44.492;11.372;2023-07-13T10:49:30;30.90;51.20
18085;DHT22;9169;44.492;11.372;2023-07-13T10:51:59;31.10;51.30
18085;DHT22;9169;44.492;11.372;2023-07-13T10:54:31;31.20;51.20
18085;DHT22;9169;44.492;11.372;2023-07-13T10:57:16;31.20;51.50
18085;DHT22;9169;44.492;11.372;2023-07-13T10:59:47;31.40;51.90
18085;DHT22;9169;44.492;11.372;2023-07-13T11:02:24;31.50;51.00
18085;DHT22;9169;44.492;11.372;2023-07-13T11:04:56;31.60;51.10
18085;DHT22;9169;44.492;11.372;2023-07-13T11:07:27;31.80;50.80
18085;DHT22;9169;44.492;11.372;2023-07-13T11:09:57;31.90;50.90
18085;DHT22;9169;44.492;11.372;2023-07-13T11:15:12;32.20;50.90
18085;DHT22;9169;44.492;11.372;2023-07-13T11:17:49;32.40;50.80
18085;DHT22;9169;44.492;11.372;2023-07-13T11:20:31;32.60;50.60
18085;DHT22;9169;44.492;11.372;2023-07-13T11:23:17;32.70;50.60
18085;DHT22;9169;44.492;11.372;2023-07-13T11:25:47;33.00;50.40
18085;DHT22;9169;44.492;11.372;2023-07-13T11:28:21;33.30;50.40
18085;DHT22;9169;44.492;11.372;2023-07-13T11:31:01;33.70;50.00
18085;DHT22;9169;44.492;11.372;2023-07-13T11:33:49;34.20;49.10
18085;DHT22;9169;44.492;11.372;2023-07-13T11:36:22;34.60;48.40
18085;DHT22;9169;44.492;11.372;2023-07-13T11:38:58;35.30;48.10
18085;DHT22;9169;44.492;11.372;2023-07-13T11:41:31;36.00;47.10
18085;DHT22;9169;44.492;11.372;2023-07-13T11:44:07;36.70;46.20
18085;DHT22;9169;44.492;11.372;2023-07-13T11:46:36;37.30;45.40
18085;DHT22;9169;44.492;11.372;2023-07-13T11:49:05;37.80;44.50
18085;DHT22;9169;44.492;11.372;2023-07-13T11:51:36;38.20;43.80
18085;DHT22;9169;44.492;11.372;2023-07-13T11:54:06;38.60;43.20
18085;DHT22;9169;44.492;11.372;2023-07-13T11:56:42;39.00;42.60
18085;DHT22;9169;44.492;11.372;2023-07-13T11:59:12;39.60;42.30
18085;DHT22;9169;44.492;11.372;2023-07-13T12:01:44;39.90;41.40
18085;DHT22;9169;44.492;11.372;2023-07-13T12:04:21;40.10;40.60
18085;DHT22;9169;44.492;11.372;2023-07-13T12:07:05;40.30;40.10
18085;DHT22;9169;44.492;11.372;2023-07-13T12:09:34;40.50;39.50
18085;DHT22;9169;44.492;11.372;2023-07-13T12:12:08;40.70;39.60
18085;DHT22;9169;44.492;11.372;2023-07-13T12:14:38;40.80;39.40
18085;DHT22;9169;44.492;11.372;2023-07-13T12:17:18;40.80;39.30
18085;DHT22;9169;44.492;11.372;2023-07-13T12:19:47;40.90;38.90
18085;DHT22;9169;44.492;11.372;2023-07-13T12:22:19;41.10;38.80
18085;DHT22;9169;44.492;11.372;2023-07-13T12:24:48;41.20;38.40
18085;DHT22;9169;44.492;11.372;2023-07-13T12:27:20;41.40;38.40
18085;DHT22;9169;44.492;11.372;2023-07-13T12:29:51;41.70;37.70
18085;DHT22;9169;44.492;11.372;2023-07-13T12:32:21;41.90;37.50
18085;DHT22;9169;44.492;11.372;2023-07-13T12:34:52;42.10;37.20
18085;DHT22;9169;44.492;11.372;2023-07-13T12:37:23;42.20;36.90
18085;DHT22;9169;44.492;11.372;2023-07-13T12:39:52;42.50;36.60
18085;DHT22;9169;44.492;11.372;2023-07-13T12:42:23;42.60;36.30
18085;DHT22;9169;44.492;11.372;2023-07-13T12:44:57;42.80;36.00
18085;DHT22;9169;44.492;11.372;2023-07-13T12:47:26;43.10;35.80
18085;DHT22;9169;44.492;11.372;2023-07-13T12:49:57;43.40;35.30
18085;DHT22;9169;44.492;11.372;2023-07-13T12:52:31;43.60;35.00
18085;DHT22;9169;44.492;11.372;2023-07-13T12:55:05;43.80;34.80
18085;DHT22;9169;44.492;11.372;2023-07-13T12:57:41;44.00;34.90
18085;DHT22;9169;44.492;11.372;2023-07-13T13:00:26;44.30;34.50
18085;DHT22;9169;44.492;11.372;2023-07-13T13:02:57;44.40;34.30
18085;DHT22;9169;44.492;11.372;2023-07-13T13:05:34;44.50;33.90
18085;DHT22;9169;44.492;11.372;2023-07-13T13:08:08;44.60;33.70
18085;DHT22;9169;44.492;11.372;2023-07-13T13:10:39;44.70;33.30
18085;DHT22;9169;44.492;11.372;2023-07-13T13:13:07;44.90;33.40
18085;DHT22;9169;44.492;11.372;2023-07-13T13:15:36;45.00;32.70
18085;DHT22;9169;44.492;11.372;2023-07-13T13:18:15;44.80;32.60
18085;DHT22;9169;44.492;11.372;2023-07-13T13:20:45;44.80;32.30
18085;DHT22;9169;44.492;11.372;2023-07-13T13:23:17;44.70;32.50
18085;DHT22;9169;44.492;11.372;2023-07-13T13:25:47;44.50;32.50
18085;DHT22;9169;44.492;11.372;2023-07-13T13:28:19;44.40;32.80
18085;DHT22;9169;44.492;11.372;2023-07-13T13:30:50;44.40;32.70
18085;DHT22;9169;44.492;11.372;2023-07-13T13:33:21;44.40;32.60
18085;DHT22;9169;44.492;11.372;2023-07-13T13:35:50;44.30;32.80
18085;DHT22;9169;44.492;11.372;2023-07-13T13:38:25;44.50;33.30
18085;DHT22;9169;44.492;11.372;2023-07-13T13:40:54;44.80;32.90
18085;DHT22;9169;44.492;11.372;2023-07-13T13:43:24;45.00;32.50
18085;DHT22;9169;44.492;11.372;2023-07-13T13:45:56;45.00;33.00
18085;DHT22;9169;44.492;11.372;2023-07-13T13:48:30;45.00;32.40
18085;DHT22;9169;44.492;11.372;2023-07-13T13:51:00;44.80;32.10
18085;DHT22;9169;44.492;11.372;2023-07-13T13:53:30;44.70;32.20
18085;DHT22;9169;44.492;11.372;2023-07-13T13:55:59;44.80;32.50
18085;DHT22;9169;44.492;11.372;2023-07-13T13:58:27;44.80;32.20
18085;DHT22;9169;44.492;11.372;2023-07-13T14:00:57;45.00;32.10
18085;DHT22;9169;44.492;11.372;2023-07-13T14:03:25;45.00;32.00
18085;DHT22;9169;44.492;11.372;2023-07-13T14:05:56;45.00;32.20
18085;DHT22;9169;44.492;11.372;2023-07-13T14:08:25;44.90;32.20
18085;DHT22;9169;44.492;11.372;2023-07-13T14:10:57;44.80;32.40
18085;DHT22;9169;44.492;11.372;2023-07-13T14:13:42;44.70;32.30
18085;DHT22;9169;44.492;11.372;2023-07-13T14:16:12;44.70;32.10
18085;DHT22;9169;44.492;11.372;2023-07-13T14:18:45;44.80;32.40
18085;DHT22;9169;44.492;11.372;2023-07-13T14:21:17;45.00;32.60
18085;DHT22;9169;44.492;11.372;2023-07-13T14:23:47;45.10;32.60
18085;DHT22;9169;44.492;11.372;2023-07-13T14:26:19;45.40;32.30
18085;DHT22;9169;44.492;11.372;2023-07-13T14:28:51;45.60;32.30
18085;DHT22;9169;44.492;11.372;2023-07-13T14:31:22;45.60;32.00
18085;DHT22;9169;44.492;11.372;2023-07-13T14:33:53;45.60;32.00
18085;DHT22;9169;44.492;11.372;2023-07-13T14:36:27;45.60;32.20
18085;DHT22;9169;44.492;11.372;2023-07-13T14:38:57;45.30;31.80
18085;DHT22;9169;44.492;11.372;2023-07-13T14:41:27;45.00;32.10
18085;DHT22;9169;44.492;11.372;2023-07-13T14:43:56;44.50;32.10
18085;DHT22;9169;44.492;11.372;2023-07-13T14:46:28;43.90;32.50
18085;DHT22;9169;44.492;11.372;2023-07-13T14:49:02;43.30;32.80
18085;DHT22;9169;44.492;11.372;2023-07-13T14:51:31;42.70;33.40
18085;DHT22;9169;44.492;11.372;2023-07-13T14:54:03;42.10;33.70
18085;DHT22;9169;44.492;11.372;2023-07-13T14:56:33;41.70;34.30
18085;DHT22;9169;44.492;11.372;2023-07-13T14:59:02;41.30;34.70
18085;DHT22;9169;44.492;11.372;2023-07-13T15:01:35;40.90;34.90
18085;DHT22;9169;44.492;11.372;2023-07-13T15:04:04;40.60;35.10
18085;DHT22;9169;44.492;11.372;2023-07-13T15:06:56;40.40;35.20
18085;DHT22;9169;44.492;11.372;2023-07-13T15:09:26;40.00;35.20
18085;DHT22;9169;44.492;11.372;2023-07-13T15:11:58;39.80;35.60
18085;DHT22;9169;44.492;11.372;2023-07-13T15:14:26;39.40;36.00
18085;DHT22;9169;44.492;11.372;2023-07-13T15:16:56;39.10;36.20
18085;DHT22;9169;44.492;11.372;2023-07-13T15:19:26;38.90;36.40
18085;DHT22;9169;44.492;11.372;2023-07-13T15:21:56;38.60;36.60
18085;DHT22;9169;44.492;11.372;2023-07-13T15:24:25;38.40;36.90
18085;DHT22;9169;44.492;11.372;2023-07-13T15:26:54;38.30;37.20
18085;DHT22;9169;44.492;11.372;2023-07-13T15:29:24;38.20;37.30
18085;DHT22;9169;44.492;11.372;2023-07-13T15:31:53;38.10;37.40
18085;DHT22;9169;44.492;11.372;2023-07-13T15:34:25;37.90;37.50
18085;DHT22;9169;44.492;11.372;2023-07-13T15:36:54;37.80;37.70
18085;DHT22;9169;44.492;11.372;2023-07-13T15:39:23;37.70;37.90
18085;DHT22;9169;44.492;11.372;2023-07-13T15:41:52;37.60;38.00
18085;DHT22;9169;44.492;11.372;2023-07-13T15:44:29;37.60;38.30
18085;DHT22;9169;44.492;11.372;2023-07-13T15:46:58;37.90;38.80
18085;DHT22;9169;44.492;11.372;2023-07-13T15:49:30;38.30;38.90
18085;DHT22;9169;44.492;11.372;2023-07-13T15:51:59;38.70;38.80
18085;DHT22;9169;44.492;11.372;2023-07-13T15:54:27;39.10;38.70
18085;DHT22;9169;44.492;11.372;2023-07-13T15:57:01;39.40;38.30